sensor_id;sensor_type;location;lat;lon;timestamp;P1;durP1;ratioP1;P2;durP2;ratioP2
14923;SDS011;7554;43.600;1.480;2023-02-20T00:01:26;17.00;;;11.20;;
14923;SDS011;7554;43.600;1.480;2023-02-20T00:03:56;17.53;;;11.33;;
14923;SDS011;7554;43.600;1.480;2023-02-20T00:06:24;17.00;;;11.27;;
14923;SDS011;7554;43.600;1.480;2023-02-20T00:08:51;36.90;;;20.90;;
14923;SDS011;7554;43.600;1.480;2023-02-20T00:11:18;20.57;;;13.77;;
14923;SDS011;7554;43.600;1.480;2023-02-20T00:13:47;18.00;;;11.60;;
14923;SDS011;7554;43.600;1.480;2023-02-20T00:16:15;17.47;;;11.27;;
14923;SDS011;7554;43.600;1.480;2023-02-20T00:18:42;18.10;;;11.70;;
14923;SDS011;7554;43.600;1.480;2023-02-20T00:21:10;20.40;;;12.47;;
14923;SDS011;7554;43.600;1.480;2023-02-20T00:23:38;17.90;;;13.70;;
14923;SDS011;7554;43.600;1.480;2023-02-20T00:26:07;20.53;;;14.10;;
14923;SDS011;7554;43.600;1.480;2023-02-20T00:28:36;19.37;;;13.57;;
14923;SDS011;7554;43.600;1.480;2023-02-20T00:31:06;18.43;;;13.40;;
14923;SDS011;7554;43.600;1.480;2023-02-20T00:33:34;21.73;;;12.47;;
14923;SDS011;7554;43.600;1.480;2023-02-20T00:36:02;21.00;;;13.23;;
14923;SDS011;7554;43.600;1.480;2023-02-20T00:38:29;18.33;;;12.27;;
14923;SDS011;7554;43.600;1.480;2023-02-20T00:40:57;19.00;;;11.83;;
14923;SDS011;7554;43.600;1.480;2023-02-20T00:43:25;17.80;;;11.80;;
14923;SDS011;7554;43.600;1.480;2023-02-20T00:45:53;17.70;;;11.87;;
14923;SDS011;7554;43.600;1.480;2023-02-20T00:48:21;19.13;;;12.03;;
14923;SDS011;7554;43.600;1.480;2023-02-20T00:50:49;15.20;;;10.70;;
14923;SDS011;7554;43.600;1.480;2023-02-20T00:53:16;17.63;;;11.13;;
14923;SDS011;7554;43.600;1.480;2023-02-20T00:55:44;18.23;;;11.50;;
14923;SDS011;7554;43.600;1.480;2023-02-20T00:58:11;21.90;;;11.33;;
14923;SDS011;7554;43.600;1.480;2023-02-20T01:00:39;21.10;;;11.47;;
14923;SDS011;7554;43.600;1.480;2023-02-20T01:03:06;21.27;;;12.03;;
14923;SDS011;7554;43.600;1.480;2023-02-20T01:05:35;20.73;;;11.87;;
14923;SDS011;7554;43.600;1.480;2023-02-20T01:08:03;19.37;;;11.33;;
14923;SDS011;7554;43.600;1.480;2023-02-20T01:10:30;19.63;;;11.80;;
14923;SDS011;7554;43.600;1.480;2023-02-20T01:12:58;16.93;;;10.90;;
14923;SDS011;7554;43.600;1.480;2023-02-20T01:15:25;19.37;;;12.20;;
14923;SDS011;7554;43.600;1.480;2023-02-20T01:17:53;18.40;;;12.20;;
14923;SDS011;7554;43.600;1.480;2023-02-20T01:20:20;18.40;;;11.60;;
14923;SDS011;7554;43.600;1.480;2023-02-20T01:22:49;16.57;;;11.23;;
14923;SDS011;7554;43.600;1.480;2023-02-20T01:25:17;17.57;;;12.33;;
14923;SDS011;7554;43.600;1.480;2023-02-20T01:27:44;20.10;;;13.77;;
14923;SDS011;7554;43.600;1.480;2023-02-20T01:30:12;22.10;;;13.33;;
14923;SDS011;7554;43.600;1.480;2023-02-20T01:32:40;19.87;;;13.20;;
14923;SDS011;7554;43.600;1.480;2023-02-20T01:35:07;18.57;;;12.23;;
14923;SDS011;7554;43.600;1.480;2023-02-20T01:37:35;18.17;;;12.97;;
14923;SDS011;7554;43.600;1.480;2023-02-20T01:40:04;16.93;;;11.33;;
14923;SDS011;7554;43.600;1.480;2023-02-20T01:42:32;16.50;;;12.30;;
14923;SDS011;7554;43.600;1.480;2023-02-20T01:45:27;19.17;;;12.43;;
14923;SDS011;7554;43.600;1.480;2023-02-20T01:47:58;17.00;;;11.67;;
14923;SDS011;7554;43.600;1.480;2023-02-20T01:50:27;16.27;;;11.23;;
14923;SDS011;7554;43.600;1.480;2023-02-20T01:52:58;16.20;;;10.70;;
14923;SDS011;7554;43.600;1.480;2023-02-20T01:55:30;14.50;;;10.13;;
14923;SDS011;7554;43.600;1.480;2023-02-20T01:58:03;16.87;;;11.40;;
14923;SDS011;7554;43.600;1.480;2023-02-20T02:00:35;18.17;;;11.57;;
14923;SDS011;7554;43.600;1.480;2023-02-20T02:03:04;18.83;;;10.87;;
14923;SDS011;7554;43.600;1.480;2023-02-20T02:05:33;18.03;;;11.13;;
14923;SDS011;7554;43.600;1.480;2023-02-20T02:08:05;18.23;;;11.37;;
14923;SDS011;7554;43.600;1.480;2023-02-20T02:10:37;24.23;;;12.03;;
14923;SDS011;7554;43.600;1.480;2023-02-20T02:13:11;19.33;;;11.73;;
14923;SDS011;7554;43.600;1.480;2023-02-20T02:15:39;18.23;;;11.67;;
14923;SDS011;7554;43.600;1.480;2023-02-20T02:18:08;19.70;;;12.13;;
14923;SDS011;7554;43.600;1.480;2023-02-20T02:24:16;18.00;;;11.10;;
14923;SDS011;7554;43.600;1.480;2023-02-20T02:27:29;18.77;;;11.13;;
14923;SDS011;7554;43.600;1.480;2023-02-20T02:30:27;21.33;;;11.83;;
14923;SDS011;7554;43.600;1.480;2023-02-20T02:33:15;19.53;;;10.70;;
14923;SDS011;7554;43.600;1.480;2023-02-20T02:36:13;18.17;;;10.93;;
14923;SDS011;7554;43.600;1.480;2023-02-20T02:38:51;16.17;;;10.40;;
14923;SDS011;7554;43.600;1.480;2023-02-20T02:41:28;20.77;;;11.37;;
14923;SDS011;7554;43.600;1.480;2023-02-20T02:44:03;15.63;;;10.03;;
14923;SDS011;7554;43.600;1.480;2023-02-20T02:46:37;20.13;;;11.97;;
14923;SDS011;7554;43.600;1.480;2023-02-20T02:49:10;16.43;;;10.10;;
14923;SDS011;7554;43.600;1.480;2023-02-20T02:51:46;17.50;;;10.90;;
14923;SDS011;7554;43.600;1.480;2023-02-20T02:54:17;16.40;;;10.83;;
14923;SDS011;7554;43.600;1.480;2023-02-20T02:56:48;15.80;;;10.17;;
14923;SDS011;7554;43.600;1.480;2023-02-20T02:59:16;15.13;;;10.67;;
14923;SDS011;7554;43.600;1.480;2023-02-20T03:01:49;17.27;;;11.77;;
14923;SDS011;7554;43.600;1.480;2023-02-20T03:04:19;14.93;;;9.90;;
14923;SDS011;7554;43.600;1.480;2023-02-20T03:06:58;16.03;;;11.20;;
14923;SDS011;7554;43.600;1.480;2023-02-20T03:09:31;17.77;;;11.00;;
14923;SDS011;7554;43.600;1.480;2023-02-20T03:12:01;20.80;;;12.17;;
14923;SDS011;7554;43.600;1.480;2023-02-20T03:14:30;21.53;;;12.47;;
14923;SDS011;7554;43.600;1.480;2023-02-20T03:17:22;16.60;;;11.03;;
14923;SDS011;7554;43.600;1.480;2023-02-20T03:19:55;17.83;;;12.30;;
14923;SDS011;7554;43.600;1.480;2023-02-20T03:22:28;17.37;;;11.33;;
14923;SDS011;7554;43.600;1.480;2023-02-20T03:25:00;17.50;;;11.80;;
14923;SDS011;7554;43.600;1.480;2023-02-20T03:27:32;17.87;;;11.53;;
14923;SDS011;7554;43.600;1.480;2023-02-20T03:30:05;17.83;;;11.70;;
14923;SDS011;7554;43.600;1.480;2023-02-20T03:32:36;19.20;;;12.07;;
14923;SDS011;7554;43.600;1.480;2023-02-20T03:35:22;17.23;;;11.37;;
14923;SDS011;7554;43.600;1.480;2023-02-20T03:38:10;15.67;;;11.30;;
14923;SDS011;7554;43.600;1.480;2023-02-20T03:40:56;16.57;;;11.53;;
14923;SDS011;7554;43.600;1.480;2023-02-20T03:43:43;16.70;;;11.00;;
14923;SDS011;7554;43.600;1.480;2023-02-20T03:46:14;17.00;;;10.37;;
14923;SDS011;7554;43.600;1.480;2023-02-20T03:48:47;19.10;;;12.20;;
14923;SDS011;7554;43.600;1.480;2023-02-20T03:51:18;19.13;;;11.70;;
14923;SDS011;7554;43.600;1.480;2023-02-20T03:53:48;22.13;;;11.60;;
14923;SDS011;7554;43.600;1.480;2023-02-20T03:56:17;17.20;;;10.87;;
14923;SDS011;7554;43.600;1.480;2023-02-20T03:58:49;36.43;;;18.97;;
14923;SDS011;7554;43.600;1.480;2023-02-20T04:01:21;27.33;;;14.73;;
14923;SDS011;7554;43.600;1.480;2023-02-20T04:03:51;32.67;;;14.67;;
14923;SDS011;7554;43.600;1.480;2023-02-20T04:06:21;25.27;;;14.03;;
14923;SDS011;7554;43.600;1.480;2023-02-20T04:08:55;18.23;;;11.27;;
14923;SDS011;7554;43.600;1.480;2023-02-20T04:11:29;17.50;;;11.40;;
14923;SDS011;7554;43.600;1.480;2023-02-20T04:13:59;19.80;;;12.33;;
14923;SDS011;7554;43.600;1.480;2023-02-20T04:16:29;18.63;;;11.37;;
14923;SDS011;7554;43.600;1.480;2023-02-20T04:19:01;17.50;;;11.33;;
14923;SDS011;7554;43.600;1.480;2023-02-20T04:21:30;19.80;;;11.63;;
14923;SDS011;7554;43.600;1.480;2023-02-20T04:24:03;16.90;;;11.40;;
14923;SDS011;7554;43.600;1.480;2023-02-20T04:26:34;15.07;;;10.40;;
14923;SDS011;7554;43.600;1.480;2023-02-20T04:29:02;19.90;;;11.27;;
14923;SDS011;7554;43.600;1.480;2023-02-20T04:31:30;15.23;;;10.33;;
14923;SDS011;7554;43.600;1.480;2023-02-20T04:33:58;22.30;;;11.80;;
14923;SDS011;7554;43.600;1.480;2023-02-20T04:36:25;15.40;;;10.97;;
14923;SDS011;7554;43.600;1.480;2023-02-20T04:38:53;16.03;;;10.47;;
14923;SDS011;7554;43.600;1.480;2023-02-20T04:41:22;15.20;;;10.87;;
14923;SDS011;7554;43.600;1.480;2023-02-20T04:43:51;15.73;;;9.93;;
14923;SDS011;7554;43.600;1.480;2023-02-20T04:46:39;15.60;;;10.27;;
14923;SDS011;7554;43.600;1.480;2023-02-20T04:49:06;13.90;;;10.33;;
14923;SDS011;7554;43.600;1.480;2023-02-20T04:51:34;17.07;;;10.47;;
14923;SDS011;7554;43.600;1.480;2023-02-20T04:54:01;16.30;;;10.67;;
14923;SDS011;7554;43.600;1.480;2023-02-20T04:56:30;16.27;;;10.77;;
14923;SDS011;7554;43.600;1.480;2023-02-20T04:58:57;17.63;;;10.70;;
14923;SDS011;7554;43.600;1.480;2023-02-20T05:01:25;14.50;;;10.40;;
14923;SDS011;7554;43.600;1.480;2023-02-20T05:03:52;14.07;;;10.20;;
14923;SDS011;7554;43.600;1.480;2023-02-20T05:06:19;14.80;;;10.17;;
14923;SDS011;7554;43.600;1.480;2023-02-20T05:08:47;16.17;;;10.50;;
14923;SDS011;7554;43.600;1.480;2023-02-20T05:11:14;13.93;;;10.13;;
14923;SDS011;7554;43.600;1.480;2023-02-20T05:13:44;16.87;;;10.47;;
14923;SDS011;7554;43.600;1.480;2023-02-20T05:16:15;15.80;;;9.97;;
14923;SDS011;7554;43.600;1.480;2023-02-20T05:18:46;13.67;;;10.47;;
14923;SDS011;7554;43.600;1.480;2023-02-20T05:21:13;14.07;;;9.47;;
14923;SDS011;7554;43.600;1.480;2023-02-20T05:23:58;13.73;;;9.93;;
14923;SDS011;7554;43.600;1.480;2023-02-20T05:26:26;14.77;;;10.90;;
14923;SDS011;7554;43.600;1.480;2023-02-20T05:28:55;14.20;;;10.03;;
14923;SDS011;7554;43.600;1.480;2023-02-20T05:31:22;16.07;;;11.17;;
14923;SDS011;7554;43.600;1.480;2023-02-20T05:33:49;13.87;;;10.40;;
14923;SDS011;7554;43.600;1.480;2023-02-20T05:36:17;15.27;;;9.80;;
14923;SDS011;7554;43.600;1.480;2023-02-20T05:38:44;16.73;;;10.80;;
14923;SDS011;7554;43.600;1.480;2023-02-20T05:41:13;15.00;;;10.53;;
14923;SDS011;7554;43.600;1.480;2023-02-20T05:43:41;15.63;;;10.67;;
14923;SDS011;7554;43.600;1.480;2023-02-20T05:46:10;13.50;;;10.30;;
14923;SDS011;7554;43.600;1.480;2023-02-20T05:48:38;15.10;;;10.13;;
14923;SDS011;7554;43.600;1.480;2023-02-20T05:51:05;15.07;;;9.30;;
14923;SDS011;7554;43.600;1.480;2023-02-20T05:53:32;14.47;;;10.33;;
14923;SDS011;7554;43.600;1.480;2023-02-20T05:56:00;14.40;;;10.20;;
14923;SDS011;7554;43.600;1.480;2023-02-20T05:58:29;15.93;;;10.23;;
14923;SDS011;7554;43.600;1.480;2023-02-20T06:00:56;18.60;;;11.43;;
14923;SDS011;7554;43.600;1.480;2023-02-20T06:03:25;17.10;;;11.20;;
14923;SDS011;7554;43.600;1.480;2023-02-20T06:05:53;17.67;;;11.67;;
14923;SDS011;7554;43.600;1.480;2023-02-20T06:08:20;18.70;;;12.07;;
14923;SDS011;7554;43.600;1.480;2023-02-20T06:10:48;18.80;;;12.83;;
14923;SDS011;7554;43.600;1.480;2023-02-20T06:13:15;20.10;;;13.17;;
14923;SDS011;7554;43.600;1.480;2023-02-20T06:15:43;21.53;;;12.60;;
14923;SDS011;7554;43.600;1.480;2023-02-20T06:18:10;18.70;;;11.83;;
14923;SDS011;7554;43.600;1.480;2023-02-20T06:20:39;19.57;;;12.17;;
14923;SDS011;7554;43.600;1.480;2023-02-20T06:23:07;21.17;;;11.97;;
14923;SDS011;7554;43.600;1.480;2023-02-20T06:25:35;19.93;;;11.47;;
14923;SDS011;7554;43.600;1.480;2023-02-20T06:28:02;19.77;;;11.17;;
14923;SDS011;7554;43.600;1.480;2023-02-20T06:30:30;17.17;;;11.10;;
14923;SDS011;7554;43.600;1.480;2023-02-20T06:32:57;17.43;;;11.87;;
14923;SDS011;7554;43.600;1.480;2023-02-20T06:35:25;17.30;;;11.63;;
14923;SDS011;7554;43.600;1.480;2023-02-20T06:37:53;18.00;;;11.67;;
14923;SDS011;7554;43.600;1.480;2023-02-20T06:40:21;18.00;;;11.97;;
14923;SDS011;7554;43.600;1.480;2023-02-20T06:42:48;18.27;;;12.00;;
14923;SDS011;7554;43.600;1.480;2023-02-20T06:45:15;17.97;;;11.50;;
14923;SDS011;7554;43.600;1.480;2023-02-20T06:47:43;17.60;;;12.00;;
14923;SDS011;7554;43.600;1.480;2023-02-20T06:50:10;18.73;;;11.97;;
14923;SDS011;7554;43.600;1.480;2023-02-20T06:52:38;21.07;;;12.10;;
14923;SDS011;7554;43.600;1.480;2023-02-20T06:55:07;21.23;;;11.60;;
14923;SDS011;7554;43.600;1.480;2023-02-20T06:57:34;19.27;;;11.47;;
14923;SDS011;7554;43.600;1.480;2023-02-20T07:00:02;19.37;;;12.70;;
14923;SDS011;7554;43.600;1.480;2023-02-20T07:02:30;19.57;;;11.47;;
14923;SDS011;7554;43.600;1.480;2023-02-20T07:04:58;19.13;;;11.27;;
14923;SDS011;7554;43.600;1.480;2023-02-20T07:07:26;16.73;;;11.23;;
14923;SDS011;7554;43.600;1.480;2023-02-20T07:09:53;19.90;;;11.77;;
14923;SDS011;7554;43.600;1.480;2023-02-20T07:12:22;21.17;;;11.70;;
14923;SDS011;7554;43.600;1.480;2023-02-20T07:14:49;19.00;;;11.17;;
14923;SDS011;7554;43.600;1.480;2023-02-20T07:17:17;19.77;;;10.90;;
14923;SDS011;7554;43.600;1.480;2023-02-20T07:19:44;19.60;;;10.77;;
14923;SDS011;7554;43.600;1.480;2023-02-20T07:22:11;22.77;;;11.53;;
14923;SDS011;7554;43.600;1.480;2023-02-20T07:24:39;18.77;;;10.90;;
14923;SDS011;7554;43.600;1.480;2023-02-20T07:27:06;19.13;;;11.07;;
14923;SDS011;7554;43.600;1.480;2023-02-20T07:29:36;19.87;;;10.77;;
14923;SDS011;7554;43.600;1.480;2023-02-20T07:32:07;18.77;;;10.50;;
14923;SDS011;7554;43.600;1.480;2023-02-20T07:34:34;20.90;;;10.70;;
14923;SDS011;7554;43.600;1.480;2023-02-20T07:37:01;22.73;;;11.60;;
14923;SDS011;7554;43.600;1.480;2023-02-20T07:39:29;23.53;;;10.83;;
14923;SDS011;7554;43.600;1.480;2023-02-20T07:41:56;24.50;;;10.60;;
14923;SDS011;7554;43.600;1.480;2023-02-20T07:44:24;19.93;;;10.23;;
14923;SDS011;7554;43.600;1.480;2023-02-20T07:46:53;21.73;;;12.93;;
14923;SDS011;7554;43.600;1.480;2023-02-20T07:49:20;14.80;;;9.03;;
14923;SDS011;7554;43.600;1.480;2023-02-20T07:51:47;16.47;;;9.60;;
14923;SDS011;7554;43.600;1.480;2023-02-20T07:54:15;22.43;;;9.93;;
14923;SDS011;7554;43.600;1.480;2023-02-20T07:56:45;12.00;;;8.93;;
14923;SDS011;7554;43.600;1.480;2023-02-20T07:59:12;13.83;;;8.80;;
14923;SDS011;7554;43.600;1.480;2023-02-20T08:01:40;13.27;;;9.30;;
14923;SDS011;7554;43.600;1.480;2023-02-20T08:04:09;14.57;;;9.50;;
14923;SDS011;7554;43.600;1.480;2023-02-20T08:06:36;18.27;;;11.27;;
14923;SDS011;7554;43.600;1.480;2023-02-20T08:09:03;13.47;;;8.27;;
14923;SDS011;7554;43.600;1.480;2023-02-20T08:11:32;16.57;;;8.57;;
14923;SDS011;7554;43.600;1.480;2023-02-20T08:14:00;13.27;;;7.77;;
14923;SDS011;7554;43.600;1.480;2023-02-20T08:16:28;11.20;;;8.50;;
14923;SDS011;7554;43.600;1.480;2023-02-20T08:18:58;11.07;;;8.03;;
14923;SDS011;7554;43.600;1.480;2023-02-20T08:21:27;10.23;;;7.50;;
14923;SDS011;7554;43.600;1.480;2023-02-20T08:23:55;10.40;;;7.27;;
14923;SDS011;7554;43.600;1.480;2023-02-20T08:26:23;8.23;;;6.60;;
14923;SDS011;7554;43.600;1.480;2023-02-20T08:28:51;10.17;;;6.47;;
14923;SDS011;7554;43.600;1.480;2023-02-20T08:31:19;10.67;;;7.20;;
14923;SDS011;7554;43.600;1.480;2023-02-20T08:33:46;9.20;;;7.03;;
14923;SDS011;7554;43.600;1.480;2023-02-20T08:36:14;8.50;;;7.00;;
14923;SDS011;7554;43.600;1.480;2023-02-20T08:38:44;8.70;;;7.23;;
14923;SDS011;7554;43.600;1.480;2023-02-20T08:41:12;7.63;;;6.67;;
14923;SDS011;7554;43.600;1.480;2023-02-20T08:43:40;11.37;;;7.37;;
14923;SDS011;7554;43.600;1.480;2023-02-20T08:46:10;9.43;;;7.00;;
14923;SDS011;7554;43.600;1.480;2023-02-20T08:48:37;14.87;;;6.97;;
14923;SDS011;7554;43.600;1.480;2023-02-20T08:51:05;10.60;;;7.47;;
14923;SDS011;7554;43.600;1.480;2023-02-20T08:53:33;10.17;;;7.77;;
14923;SDS011;7554;43.600;1.480;2023-02-20T08:56:05;11.77;;;7.77;;
14923;SDS011;7554;43.600;1.480;2023-02-20T08:58:33;10.43;;;7.77;;
14923;SDS011;7554;43.600;1.480;2023-02-20T09:01:01;17.60;;;7.20;;
14923;SDS011;7554;43.600;1.480;2023-02-20T09:03:28;14.50;;;7.43;;
14923;SDS011;7554;43.600;1.480;2023-02-20T09:05:55;15.67;;;8.13;;
14923;SDS011;7554;43.600;1.480;2023-02-20T09:08:23;14.90;;;8.03;;
14923;SDS011;7554;43.600;1.480;2023-02-20T09:10:50;14.60;;;8.17;;
14923;SDS011;7554;43.600;1.480;2023-02-20T09:13:19;10.00;;;8.30;;
14923;SDS011;7554;43.600;1.480;2023-02-20T09:15:46;13.40;;;8.63;;
14923;SDS011;7554;43.600;1.480;2023-02-20T09:18:14;11.03;;;8.57;;
14923;SDS011;7554;43.600;1.480;2023-02-20T09:20:41;14.70;;;8.43;;
14923;SDS011;7554;43.600;1.480;2023-02-20T09:23:08;18.40;;;8.40;;
14923;SDS011;7554;43.600;1.480;2023-02-20T09:25:36;17.17;;;8.20;;
14923;SDS011;7554;43.600;1.480;2023-02-20T09:28:03;10.97;;;8.63;;
14923;SDS011;7554;43.600;1.480;2023-02-20T09:30:32;12.77;;;8.77;;
14923;SDS011;7554;43.600;1.480;2023-02-20T09:33:00;14.80;;;8.33;;
14923;SDS011;7554;43.600;1.480;2023-02-20T09:35:28;13.13;;;8.13;;
14923;SDS011;7554;43.600;1.480;2023-02-20T09:37:56;11.43;;;8.87;;
14923;SDS011;7554;43.600;1.480;2023-02-20T09:40:24;11.43;;;8.60;;
14923;SDS011;7554;43.600;1.480;2023-02-20T09:42:57;26.77;;;9.83;;
14923;SDS011;7554;43.600;1.480;2023-02-20T09:45:42;15.97;;;10.30;;
14923;SDS011;7554;43.600;1.480;2023-02-20T09:48:18;14.00;;;9.33;;
14923;SDS011;7554;43.600;1.480;2023-02-20T09:50:54;13.43;;;10.43;;
14923;SDS011;7554;43.600;1.480;2023-02-20T09:53:29;14.20;;;9.67;;
14923;SDS011;7554;43.600;1.480;2023-02-20T09:56:00;13.20;;;10.10;;
14923;SDS011;7554;43.600;1.480;2023-02-20T09:58:39;14.60;;;11.10;;
14923;SDS011;7554;43.600;1.480;2023-02-20T10:01:12;14.53;;;10.90;;
14923;SDS011;7554;43.600;1.480;2023-02-20T10:03:48;15.23;;;10.73;;
14923;SDS011;7554;43.600;1.480;2023-02-20T10:06:20;13.83;;;10.57;;
14923;SDS011;7554;43.600;1.480;2023-02-20T10:08:50;18.90;;;11.73;;
14923;SDS011;7554;43.600;1.480;2023-02-20T10:11:21;23.87;;;12.23;;
14923;SDS011;7554;43.600;1.480;2023-02-20T10:14:11;18.77;;;12.40;;
14923;SDS011;7554;43.600;1.480;2023-02-20T10:16:59;18.87;;;11.70;;
14923;SDS011;7554;43.600;1.480;2023-02-20T10:19:33;18.37;;;11.93;;
14923;SDS011;7554;43.600;1.480;2023-02-20T10:22:08;15.80;;;11.50;;
14923;SDS011;7554;43.600;1.480;2023-02-20T10:24:43;23.23;;;11.67;;
14923;SDS011;7554;43.600;1.480;2023-02-20T10:27:24;15.33;;;10.70;;
14923;SDS011;7554;43.600;1.480;2023-02-20T10:29:57;15.60;;;11.73;;
14923;SDS011;7554;43.600;1.480;2023-02-20T10:32:29;14.50;;;10.50;;
14923;SDS011;7554;43.600;1.480;2023-02-20T10:35:04;13.10;;;10.90;;
14923;SDS011;7554;43.600;1.480;2023-02-20T10:37:36;15.17;;;11.87;;
14923;SDS011;7554;43.600;1.480;2023-02-20T10:40:10;17.03;;;12.70;;
14923;SDS011;7554;43.600;1.480;2023-02-20T10:42:44;16.60;;;12.37;;
14923;SDS011;7554;43.600;1.480;2023-02-20T10:45:19;16.37;;;12.00;;
14923;SDS011;7554;43.600;1.480;2023-02-20T10:47:56;17.30;;;12.17;;
14923;SDS011;7554;43.600;1.480;2023-02-20T10:50:30;16.13;;;11.93;;
14923;SDS011;7554;43.600;1.480;2023-02-20T10:53:03;12.97;;;10.70;;
14923;SDS011;7554;43.600;1.480;2023-02-20T10:55:39;12.87;;;10.00;;
14923;SDS011;7554;43.600;1.480;2023-02-20T10:58:11;13.23;;;10.43;;
14923;SDS011;7554;43.600;1.480;2023-02-20T11:00:44;12.93;;;10.17;;
14923;SDS011;7554;43.600;1.480;2023-02-20T11:03:18;13.33;;;10.50;;
14923;SDS011;7554;43.600;1.480;2023-02-20T11:05:50;12.37;;;10.40;;
14923;SDS011;7554;43.600;1.480;2023-02-20T11:08:19;16.30;;;10.73;;
14923;SDS011;7554;43.600;1.480;2023-02-20T11:10:47;13.73;;;10.57;;
14923;SDS011;7554;43.600;1.480;2023-02-20T11:13:16;13.53;;;10.23;;
14923;SDS011;7554;43.600;1.480;2023-02-20T11:15:47;13.43;;;10.47;;
14923;SDS011;7554;43.600;1.480;2023-02-20T11:18:22;13.20;;;10.07;;
14923;SDS011;7554;43.600;1.480;2023-02-20T11:20:52;12.33;;;9.80;;
14923;SDS011;7554;43.600;1.480;2023-02-20T11:23:40;15.13;;;10.20;;
14923;SDS011;7554;43.600;1.480;2023-02-20T11:28:59;14.63;;;9.40;;
14923;SDS011;7554;43.600;1.480;2023-02-20T11:31:30;10.73;;;8.40;;
14923;SDS011;7554;43.600;1.480;2023-02-20T11:34:01;10.10;;;8.03;;
14923;SDS011;7554;43.600;1.480;2023-02-20T11:36:33;11.03;;;8.67;;
14923;SDS011;7554;43.600;1.480;2023-02-20T11:39:12;12.50;;;7.93;;
14923;SDS011;7554;43.600;1.480;2023-02-20T11:41:49;9.43;;;6.87;;
14923;SDS011;7554;43.600;1.480;2023-02-20T11:44:30;8.07;;;6.70;;
14923;SDS011;7554;43.600;1.480;2023-02-20T11:49:49;10.70;;;6.67;;
14923;SDS011;7554;43.600;1.480;2023-02-20T11:52:38;8.93;;;6.37;;
14923;SDS011;7554;43.600;1.480;2023-02-20T11:55:22;8.57;;;6.53;;
14923;SDS011;7554;43.600;1.480;2023-02-20T11:57:51;7.97;;;6.87;;
14923;SDS011;7554;43.600;1.480;2023-02-20T12:00:19;7.60;;;6.63;;
14923;SDS011;7554;43.600;1.480;2023-02-20T12:02:49;8.60;;;6.97;;
14923;SDS011;7554;43.600;1.480;2023-02-20T12:05:23;10.70;;;7.43;;
14923;SDS011;7554;43.600;1.480;2023-02-20T12:08:17;8.70;;;7.20;;
14923;SDS011;7554;43.600;1.480;2023-02-20T12:11:05;7.17;;;6.07;;
14923;SDS011;7554;43.600;1.480;2023-02-20T12:13:36;8.53;;;6.70;;
14923;SDS011;7554;43.600;1.480;2023-02-20T12:16:11;7.40;;;5.80;;
14923;SDS011;7554;43.600;1.480;2023-02-20T12:18:55;7.33;;;5.20;;
14923;SDS011;7554;43.600;1.480;2023-02-20T12:21:33;5.97;;;4.63;;
14923;SDS011;7554;43.600;1.480;2023-02-20T12:24:26;6.83;;;5.07;;
14923;SDS011;7554;43.600;1.480;2023-02-20T12:27:22;7.87;;;4.80;;
14923;SDS011;7554;43.600;1.480;2023-02-20T12:30:14;14.77;;;4.10;;
14923;SDS011;7554;43.600;1.480;2023-02-20T12:32:54;4.43;;;3.77;;
14923;SDS011;7554;43.600;1.480;2023-02-20T12:35:29;4.97;;;3.57;;
14923;SDS011;7554;43.600;1.480;2023-02-20T12:40:50;5.10;;;4.37;;
14923;SDS011;7554;43.600;1.480;2023-02-20T12:43:30;10.33;;;4.30;;
14923;SDS011;7554;43.600;1.480;2023-02-20T12:46:05;5.73;;;3.47;;
14923;SDS011;7554;43.600;1.480;2023-02-20T12:48:37;12.43;;;3.33;;
14923;SDS011;7554;43.600;1.480;2023-02-20T12:51:17;2.77;;;2.20;;
14923;SDS011;7554;43.600;1.480;2023-02-20T12:54:01;3.37;;;2.30;;
14923;SDS011;7554;43.600;1.480;2023-02-20T12:56:42;6.77;;;2.50;;
14923;SDS011;7554;43.600;1.480;2023-02-20T12:59:21;3.90;;;2.90;;
14923;SDS011;7554;43.600;1.480;2023-02-20T13:01:53;2.90;;;2.20;;
14923;SDS011;7554;43.600;1.480;2023-02-20T13:04:27;4.27;;;2.90;;
14923;SDS011;7554;43.600;1.480;2023-02-20T13:07:02;5.73;;;2.50;;
14923;SDS011;7554;43.600;1.480;2023-02-20T13:09:36;3.20;;;2.37;;
14923;SDS011;7554;43.600;1.480;2023-02-20T13:12:09;5.13;;;2.40;;
14923;SDS011;7554;43.600;1.480;2023-02-20T13:14:47;3.23;;;2.57;;
14923;SDS011;7554;43.600;1.480;2023-02-20T13:17:27;2.60;;;1.90;;
14923;SDS011;7554;43.600;1.480;2023-02-20T13:20:01;10.33;;;2.10;;
14923;SDS011;7554;43.600;1.480;2023-02-20T13:22:35;2.10;;;1.60;;
14923;SDS011;7554;43.600;1.480;2023-02-20T13:28:14;10.23;;;2.43;;
14923;SDS011;7554;43.600;1.480;2023-02-20T13:31:14;11.17;;;2.10;;
14923;SDS011;7554;43.600;1.480;2023-02-20T13:33:43;11.03;;;1.87;;
14923;SDS011;7554;43.600;1.480;2023-02-20T13:39:26;3.47;;;1.63;;
14923;SDS011;7554;43.600;1.480;2023-02-20T13:45:02;5.70;;;2.27;;
14923;SDS011;7554;43.600;1.480;2023-02-20T13:54:11;2.80;;;1.90;;
14923;SDS011;7554;43.600;1.480;2023-02-20T13:56:51;1.90;;;1.70;;
14923;SDS011;7554;43.600;1.480;2023-02-20T13:59:23;2.90;;;1.53;;
14923;SDS011;7554;43.600;1.480;2023-02-20T14:01:54;2.23;;;2.03;;
14923;SDS011;7554;43.600;1.480;2023-02-20T14:04:23;2.07;;;1.83;;
14923;SDS011;7554;43.600;1.480;2023-02-20T14:06:51;2.30;;;1.87;;
14923;SDS011;7554;43.600;1.480;2023-02-20T14:09:20;2.20;;;1.83;;
14923;SDS011;7554;43.600;1.480;2023-02-20T14:11:52;2.20;;;1.80;;
14923;SDS011;7554;43.600;1.480;2023-02-20T14:14:25;2.13;;;1.90;;
14923;SDS011;7554;43.600;1.480;2023-02-20T14:17:03;3.13;;;2.43;;
14923;SDS011;7554;43.600;1.480;2023-02-20T14:19:32;2.30;;;2.00;;
14923;SDS011;7554;43.600;1.480;2023-02-20T14:22:22;2.70;;;2.10;;
14923;SDS011;7554;43.600;1.480;2023-02-20T14:27:43;3.03;;;1.97;;
14923;SDS011;7554;43.600;1.480;2023-02-20T14:30:11;4.90;;;2.23;;
14923;SDS011;7554;43.600;1.480;2023-02-20T14:32:42;5.70;;;1.90;;
14923;SDS011;7554;43.600;1.480;2023-02-20T14:35:22;3.57;;;1.67;;
14923;SDS011;7554;43.600;1.480;2023-02-20T14:38:26;2.77;;;1.83;;
14923;SDS011;7554;43.600;1.480;2023-02-20T14:41:09;4.57;;;1.80;;
14923;SDS011;7554;43.600;1.480;2023-02-20T14:43:38;3.93;;;1.90;;
14923;SDS011;7554;43.600;1.480;2023-02-20T14:46:06;2.97;;;1.80;;
14923;SDS011;7554;43.600;1.480;2023-02-20T14:48:42;3.37;;;1.77;;
14923;SDS011;7554;43.600;1.480;2023-02-20T14:51:13;2.87;;;2.00;;
14923;SDS011;7554;43.600;1.480;2023-02-20T14:53:44;2.00;;;1.60;;
14923;SDS011;7554;43.600;1.480;2023-02-20T14:56:21;4.07;;;1.83;;
14923;SDS011;7554;43.600;1.480;2023-02-20T14:58:49;2.10;;;1.80;;
14923;SDS011;7554;43.600;1.480;2023-02-20T15:01:17;18.40;;;3.23;;
14923;SDS011;7554;43.600;1.480;2023-02-20T15:04:01;4.93;;;2.00;;
14923;SDS011;7554;43.600;1.480;2023-02-20T15:06:32;10.00;;;4.73;;
14923;SDS011;7554;43.600;1.480;2023-02-20T15:09:02;3.50;;;2.00;;
14923;SDS011;7554;43.600;1.480;2023-02-20T15:11:30;4.83;;;2.40;;
14923;SDS011;7554;43.600;1.480;2023-02-20T15:13:59;5.27;;;2.37;;
14923;SDS011;7554;43.600;1.480;2023-02-20T15:16:29;3.63;;;2.30;;
14923;SDS011;7554;43.600;1.480;2023-02-20T15:19:01;5.70;;;1.97;;
14923;SDS011;7554;43.600;1.480;2023-02-20T15:21:29;3.53;;;2.67;;
14923;SDS011;7554;43.600;1.480;2023-02-20T15:24:26;7.27;;;2.80;;
14923;SDS011;7554;43.600;1.480;2023-02-20T15:27:06;7.17;;;2.53;;
14923;SDS011;7554;43.600;1.480;2023-02-20T15:29:39;3.33;;;2.50;;
14923;SDS011;7554;43.600;1.480;2023-02-20T15:32:13;16.60;;;2.70;;
14923;SDS011;7554;43.600;1.480;2023-02-20T15:34:49;2.10;;;1.23;;
14923;SDS011;7554;43.600;1.480;2023-02-20T15:37:19;4.37;;;1.20;;
14923;SDS011;7554;43.600;1.480;2023-02-20T15:39:50;1.37;;;1.00;;
14923;SDS011;7554;43.600;1.480;2023-02-20T15:42:18;3.47;;;1.30;;